sensor_id;sensor_type;location;lat;lon;timestamp;pressure;altitude;pressure_sealevel;temperature;humidity
70843;BME280;58469;52.312;16.970;2024-01-11T00:01:57;102231.38;;;-8.03;87.94
70843;BME280;58469;52.312;16.970;2024-01-11T00:04:57;102224.75;;;-8.07;88.41
70843;BME280;58469;52.312;16.970;2024-01-11T00:07:58;102207.06;;;-8.08;89.12
70843;BME280;58469;52.312;16.970;2024-01-11T00:10:58;102201.19;;;-8.10;89.53
70843;BME280;58469;52.312;16.970;2024-01-11T00:13:58;102203.91;;;-8.15;90.07
70843;BME280;58469;52.312;16.970;2024-01-11T00:16:59;102209.41;;;-8.25;90.55
70843;BME280;58469;52.312;16.970;2024-01-11T00:19:59;102219.59;;;-8.27;91.22
70843;BME280;58469;52.312;16.970;2024-01-11T00:22:59;102209.69;;;-8.33;92.11
70843;BME280;58469;52.312;16.970;2024-01-11T00:25:59;102198.84;;;-8.38;92.68
70843;BME280;58469;52.312;16.970;2024-01-11T00:29:00;102192.25;;;-8.42;92.33
70843;BME280;58469;52.312;16.970;2024-01-11T00:32:00;102186.34;;;-8.42;92.34
70843;BME280;58469;52.312;16.970;2024-01-11T00:35:00;102180.44;;;-8.43;92.47
70843;BME280;58469;52.312;16.970;2024-01-11T00:38:00;102196.59;;;-8.45;92.08
70843;BME280;58469;52.312;16.970;2024-01-11T00:41:01;102170.38;;;-8.44;93.41
70843;BME280;58469;52.312;16.970;2024-01-11T00:44:01;102144.22;;;-8.45;91.86
70843;BME280;58469;52.312;16.970;2024-01-11T00:47:01;102139.25;;;-8.48;92.17
70843;BME280;58469;52.312;16.970;2024-01-11T00:50:01;102154.50;;;-8.50;92.03
70843;BME280;58469;52.312;16.970;2024-01-11T00:53:02;102158.78;;;-8.52;92.94
70843;BME280;58469;52.312;16.970;2024-01-11T00:56:02;102135.06;;;-8.49;93.04
70843;BME280;58469;52.312;16.970;2024-01-11T00:59:03;102122.34;;;-8.48;92.96
70843;BME280;58469;52.312;16.970;2024-01-11T01:02:03;102119.91;;;-8.51;93.34
70843;BME280;58469;52.312;16.970;2024-01-11T01:05:04;102142.84;;;-8.54;93.60
70843;BME280;58469;52.312;16.970;2024-01-11T01:08:04;102153.91;;;-8.56;93.79
70843;BME280;58469;52.312;16.970;2024-01-11T01:11:05;102155.50;;;-8.54;94.65
70843;BME280;58469;52.312;16.970;2024-01-11T01:14:05;102149.53;;;-8.53;94.85
70843;BME280;58469;52.312;16.970;2024-01-11T01:17:05;102146.13;;;-8.52;94.61
70843;BME280;58469;52.312;16.970;2024-01-11T01:20:06;102136.88;;;-8.53;94.73
70843;BME280;58469;52.312;16.970;2024-01-11T01:23:06;102141.09;;;-8.53;94.67
70843;BME280;58469;52.312;16.970;2024-01-11T01:26:07;102134.34;;;-8.53;94.87
70843;BME280;58469;52.312;16.970;2024-01-11T01:29:07;102135.97;;;-8.52;94.84
70843;BME280;58469;52.312;16.970;2024-01-11T01:32:07;102145.38;;;-8.54;95.13
70843;BME280;58469;52.312;16.970;2024-01-11T01:35:08;102134.34;;;-8.53;94.62
70843;BME280;58469;52.312;16.970;2024-01-11T01:38:08;102144.41;;;-8.51;94.90
70843;BME280;58469;52.312;16.970;2024-01-11T01:41:08;102153.66;;;-8.50;94.86
70843;BME280;58469;52.312;16.970;2024-01-11T01:44:08;102146.13;;;-8.52;95.04
70843;BME280;58469;52.312;16.970;2024-01-11T01:47:10;102131.69;;;-8.50;95.34
70843;BME280;58469;52.312;16.970;2024-01-11T01:50:11;102117.22;;;-8.46;94.70
70843;BME280;58469;52.312;16.970;2024-01-11T01:53:12;102124.94;;;-8.49;94.51
70843;BME280;58469;52.312;16.970;2024-01-11T01:56:13;102121.56;;;-8.50;95.07
70843;BME280;58469;52.312;16.970;2024-01-11T01:59:13;102148.50;;;-8.47;94.67
70843;BME280;58469;52.312;16.970;2024-01-11T02:02:15;102145.13;;;-8.48;94.95
70843;BME280;58469;52.312;16.970;2024-01-11T02:05:16;102153.53;;;-8.45;95.22
70843;BME280;58469;52.312;16.970;2024-01-11T02:08:18;102130.53;;;-8.41;94.17
70843;BME280;58469;52.312;16.970;2024-01-11T02:11:20;102132.28;;;-8.43;94.24
70843;BME280;58469;52.312;16.970;2024-01-11T02:14:21;102131.31;;;-8.39;94.00
70843;BME280;58469;52.312;16.970;2024-01-11T02:17:21;102146.47;;;-8.37;94.49
70843;BME280;58469;52.312;16.970;2024-01-11T02:20:22;102144.72;;;-8.35;93.92
70843;BME280;58469;52.312;16.970;2024-01-11T02:23:24;102141.06;;;-8.28;93.76
70843;BME280;58469;52.312;16.970;2024-01-11T02:26:24;102146.91;;;-8.26;93.89
70843;BME280;58469;52.312;16.970;2024-01-11T02:29:25;102138.34;;;-8.24;93.28
70843;BME280;58469;52.312;16.970;2024-01-11T02:32:25;102148.38;;;-8.21;93.76
70843;BME280;58469;52.312;16.970;2024-01-11T02:35:26;102149.13;;;-8.19;93.32
70843;BME280;58469;52.312;16.970;2024-01-11T02:38:26;102163.41;;;-8.16;93.63
70843;BME280;58469;52.312;16.970;2024-01-11T02:41:27;102156.78;;;-8.20;93.58
70843;BME280;58469;52.312;16.970;2024-01-11T02:44:28;102154.25;;;-8.20;94.28
70843;BME280;58469;52.312;16.970;2024-01-11T02:47:28;102129.78;;;-8.21;94.25
70843;BME280;58469;52.312;16.970;2024-01-11T02:50:28;102125.56;;;-8.21;94.74
70843;BME280;58469;52.312;16.970;2024-01-11T02:53:28;102123.78;;;-8.19;95.93
70843;BME280;58469;52.312;16.970;2024-01-11T02:56:29;102107.50;;;-8.13;96.00
70843;BME280;58469;52.312;16.970;2024-01-11T02:59:29;102105.75;;;-8.11;96.54
70843;BME280;58469;52.312;16.970;2024-01-11T03:02:29;102091.31;;;-8.09;96.63
70843;BME280;58469;52.312;16.970;2024-01-11T03:05:29;102101.31;;;-8.06;96.30
70843;BME280;58469;52.312;16.970;2024-01-11T03:08:30;102108.94;;;-8.06;96.46
70843;BME280;58469;52.312;16.970;2024-01-11T03:11:30;102117.97;;;-7.99;96.33
70843;BME280;58469;52.312;16.970;2024-01-11T03:14:30;102124.75;;;-8.00;96.30
70843;BME280;58469;52.312;16.970;2024-01-11T03:17:31;102123.81;;;-7.97;96.45
70843;BME280;58469;52.312;16.970;2024-01-11T03:20:31;102111.00;;;-7.94;96.76
70843;BME280;58469;52.312;16.970;2024-01-11T03:23:31;102110.13;;;-7.93;97.17
70843;BME280;58469;52.312;16.970;2024-01-11T03:26:31;102117.72;;;-7.93;97.05
70843;BME280;58469;52.312;16.970;2024-01-11T03:29:32;102119.31;;;-7.91;97.27
70843;BME280;58469;52.312;16.970;2024-01-11T03:32:32;102114.31;;;-7.92;97.92
70843;BME280;58469;52.312;16.970;2024-01-11T03:35:32;102105.88;;;-7.93;98.02
70843;BME280;58469;52.312;16.970;2024-01-11T03:38:32;102089.78;;;-7.92;97.99
70843;BME280;58469;52.312;16.970;2024-01-11T03:41:33;102084.72;;;-7.92;98.52
70843;BME280;58469;52.312;16.970;2024-01-11T03:44:33;102095.66;;;-7.91;99.15
70843;BME280;58469;52.312;16.970;2024-01-11T03:47:33;102088.75;;;-7.88;98.29
70843;BME280;58469;52.312;16.970;2024-01-11T03:50:33;102087.78;;;-7.84;98.17
70843;BME280;58469;52.312;16.970;2024-01-11T03:53:36;102087.66;;;-7.81;98.47
70843;BME280;58469;52.312;16.970;2024-01-11T03:56:38;102082.44;;;-7.78;99.14
70843;BME280;58469;52.312;16.970;2024-01-11T03:59:38;102072.84;;;-7.70;98.61
70843;BME280;58469;52.312;16.970;2024-01-11T04:02:39;102055.88;;;-7.69;98.68
70843;BME280;58469;52.312;16.970;2024-01-11T04:05:40;102050.72;;;-7.66;99.14
70843;BME280;58469;52.312;16.970;2024-01-11T04:08:40;102053.13;;;-7.63;98.90
70843;BME280;58469;52.312;16.970;2024-01-11T04:11:40;102057.16;;;-7.59;99.27
70843;BME280;58469;52.312;16.970;2024-01-11T04:14:41;102073.06;;;-7.54;99.06
70843;BME280;58469;52.312;16.970;2024-01-11T04:17:41;102081.41;;;-7.52;99.31
70843;BME280;58469;52.312;16.970;2024-01-11T04:20:41;102081.53;;;-7.55;99.86
70843;BME280;58469;52.312;16.970;2024-01-11T04:23:41;102065.38;;;-7.53;100.00
70843;BME280;58469;52.312;16.970;2024-01-11T04:26:42;102055.78;;;-7.46;100.00
70843;BME280;58469;52.312;16.970;2024-01-11T04:29:42;102045.38;;;-7.40;100.00
70843;BME280;58469;52.312;16.970;2024-01-11T04:32:42;102037.44;;;-7.33;100.00
70843;BME280;58469;52.312;16.970;2024-01-11T04:35:42;102042.16;;;-7.23;100.00
70843;BME280;58469;52.312;16.970;2024-01-11T04:38:43;102018.19;;;-7.18;100.00
70843;BME280;58469;52.312;16.970;2024-01-11T04:41:45;101991.72;;;-7.12;100.00
70843;BME280;58469;52.312;16.970;2024-01-11T04:44:45;101999.88;;;-7.06;100.00
70843;BME280;58469;52.312;16.970;2024-01-11T04:47:45;101982.00;;;-7.03;100.00
70843;BME280;58469;52.312;16.970;2024-01-11T04:50:45;101979.94;;;-6.95;100.00
70843;BME280;58469;52.312;16.970;2024-01-11T04:53:46;101975.53;;;-6.91;100.00
70843;BME280;58469;52.312;16.970;2024-01-11T04:56:46;101976.00;;;-6.83;100.00
70843;BME280;58469;52.312;16.970;2024-01-11T04:59:46;101963.94;;;-6.78;100.00
70843;BME280;58469;52.312;16.970;2024-01-11T05:02:47;101978.91;;;-6.72;100.00
70843;BME280;58469;52.312;16.970;2024-01-11T05:05:47;101969.38;;;-6.67;100.00
70843;BME280;58469;52.312;16.970;2024-01-11T05:08:50;101965.84;;;-6.65;100.00
70843;BME280;58469;52.312;16.970;2024-01-11T05:11:51;101952.66;;;-6.54;100.00
70843;BME280;58469;52.312;16.970;2024-01-11T05:14:51;101951.75;;;-6.53;100.00
70843;BME280;58469;52.312;16.970;2024-01-11T05:17:51;101946.44;;;-6.49;100.00
70843;BME280;58469;52.312;16.970;2024-01-11T05:20:51;101952.81;;;-6.40;100.00
70843;BME280;58469;52.312;16.970;2024-01-11T05:23:52;101946.72;;;-6.36;100.00
70843;BME280;58469;52.312;16.970;2024-01-11T05:26:52;101933.09;;;-6.35;100.00
70843;BME280;58469;52.312;16.970;2024-01-11T05:29:52;101961.75;;;-6.32;100.00
70843;BME280;58469;52.312;16.970;2024-01-11T05:32:53;101953.88;;;-6.27;100.00
70843;BME280;58469;52.312;16.970;2024-01-11T05:35:53;101944.19;;;-6.19;100.00
70843;BME280;58469;52.312;16.970;2024-01-11T05:38:54;101932.22;;;-6.17;100.00
70843;BME280;58469;52.312;16.970;2024-01-11T05:41:54;101941.34;;;-6.13;100.00
70843;BME280;58469;52.312;16.970;2024-01-11T05:44:54;101930.22;;;-6.11;100.00
70843;BME280;58469;52.312;16.970;2024-01-11T05:47:55;101941.75;;;-6.03;100.00
70843;BME280;58469;52.312;16.970;2024-01-11T05:50:55;101936.56;;;-6.02;100.00
70843;BME280;58469;52.312;16.970;2024-01-11T05:53:55;101942.84;;;-5.92;100.00
70843;BME280;58469;52.312;16.970;2024-01-11T05:56:55;101944.28;;;-5.86;100.00
70843;BME280;58469;52.312;16.970;2024-01-11T05:59:56;101932.91;;;-5.81;100.00
70843;BME280;58469;52.312;16.970;2024-01-11T06:02:56;101932.72;;;-5.76;100.00
70843;BME280;58469;52.312;16.970;2024-01-11T06:05:56;101925.66;;;-5.71;100.00
70843;BME280;58469;52.312;16.970;2024-01-11T06:08:56;101933.06;;;-5.67;100.00
70843;BME280;58469;52.312;16.970;2024-01-11T06:11:57;101908.44;;;-5.66;100.00
70843;BME280;58469;52.312;16.970;2024-01-11T06:14:57;101911.66;;;-5.63;100.00
70843;BME280;58469;52.312;16.970;2024-01-11T06:17:57;101902.81;;;-5.56;100.00
70843;BME280;58469;52.312;16.970;2024-01-11T06:20:57;101877.25;;;-5.54;100.00
70843;BME280;58469;52.312;16.970;2024-01-11T06:23:58;101885.72;;;-5.54;100.00
70843;BME280;58469;52.312;16.970;2024-01-11T06:26:58;101882.09;;;-5.50;100.00
70843;BME280;58469;52.312;16.970;2024-01-11T06:29:58;101885.41;;;-5.48;100.00
70843;BME280;58469;52.312;16.970;2024-01-11T06:32:59;101867.66;;;-5.49;100.00
70843;BME280;58469;52.312;16.970;2024-01-11T06:35:59;101896.16;;;-5.43;100.00
70843;BME280;58469;52.312;16.970;2024-01-11T06:38:59;101881.72;;;-5.42;100.00
70843;BME280;58469;52.312;16.970;2024-01-11T06:41:59;101875.78;;;-5.43;100.00
70843;BME280;58469;52.312;16.970;2024-01-11T06:45:00;101882.56;;;-5.42;100.00
70843;BME280;58469;52.312;16.970;2024-01-11T06:48:00;101875.78;;;-5.43;100.00
70843;BME280;58469;52.312;16.970;2024-01-11T06:51:00;101876.47;;;-5.39;100.00
70843;BME280;58469;52.312;16.970;2024-01-11T06:54:01;101878.03;;;-5.37;100.00
70843;BME280;58469;52.312;16.970;2024-01-11T06:57:01;101883.13;;;-5.37;100.00
70843;BME280;58469;52.312;16.970;2024-01-11T07:00:02;101864.38;;;-5.36;100.00
70843;BME280;58469;52.312;16.970;2024-01-11T07:03:02;101881.38;;;-5.36;100.00
70843;BME280;58469;52.312;16.970;2024-01-11T07:06:03;101878.84;;;-5.36;100.00
70843;BME280;58469;52.312;16.970;2024-01-11T07:09:03;101869.41;;;-5.34;100.00
70843;BME280;58469;52.312;16.970;2024-01-11T07:12:04;101868.44;;;-5.32;100.00
70843;BME280;58469;52.312;16.970;2024-01-11T07:15:05;101866.69;;;-5.31;100.00
70843;BME280;58469;52.312;16.970;2024-01-11T07:18:05;101862.50;;;-5.32;100.00
70843;BME280;58469;52.312;16.970;2024-01-11T07:21:06;101859.88;;;-5.31;100.00
70843;BME280;58469;52.312;16.970;2024-01-11T07:24:06;101870.16;;;-5.32;100.00
70843;BME280;58469;52.312;16.970;2024-01-11T07:27:06;101880.25;;;-5.31;100.00
70843;BME280;58469;52.312;16.970;2024-01-11T07:30:07;101877.31;;;-5.23;100.00
70843;BME280;58469;52.312;16.970;2024-01-11T07:33:08;101874.69;;;-5.22;100.00
70843;BME280;58469;52.312;16.970;2024-01-11T07:36:08;101868.59;;;-5.19;100.00
70843;BME280;58469;52.312;16.970;2024-01-11T07:39:08;101856.44;;;-5.14;100.00
70843;BME280;58469;52.312;16.970;2024-01-11T07:42:08;101851.34;;;-5.14;100.00
70843;BME280;58469;52.312;16.970;2024-01-11T07:45:09;101863.84;;;-5.10;100.00
70843;BME280;58469;52.312;16.970;2024-01-11T07:48:10;101872.13;;;-5.06;100.00
70843;BME280;58469;52.312;16.970;2024-01-11T07:51:10;101893.00;;;-5.00;100.00
70843;BME280;58469;52.312;16.970;2024-01-11T07:54:10;101905.00;;;-5.02;100.00
70843;BME280;58469;52.312;16.970;2024-01-11T07:57:11;101895.56;;;-5.00;100.00
70843;BME280;58469;52.312;16.970;2024-01-11T08:00:11;101894.16;;;-4.90;100.00
70843;BME280;58469;52.312;16.970;2024-01-11T08:03:11;101889.91;;;-4.89;100.00
70843;BME280;58469;52.312;16.970;2024-01-11T08:06:12;101863.97;;;-4.82;100.00
70843;BME280;58469;52.312;16.970;2024-01-11T08:09:12;101866.84;;;-4.72;100.00
70843;BME280;58469;52.312;16.970;2024-01-11T08:12:12;101880.06;;;-4.65;100.00
70843;BME280;58469;52.312;16.970;2024-01-11T08:15:13;101876.38;;;-4.60;100.00
70843;BME280;58469;52.312;16.970;2024-01-11T08:18:13;101871.00;;;-4.55;100.00
70843;BME280;58469;52.312;16.970;2024-01-11T08:21:13;101864.94;;;-4.53;100.00
70843;BME280;58469;52.312;16.970;2024-01-11T08:24:13;101862.13;;;-4.48;100.00
70843;BME280;58469;52.312;16.970;2024-01-11T08:27:14;101868.50;;;-4.41;100.00
70843;BME280;58469;52.312;16.970;2024-01-11T08:30:14;101862.25;;;-4.36;100.00
70843;BME280;58469;52.312;16.970;2024-01-11T08:33:14;101854.16;;;-4.28;100.00
70843;BME280;58469;52.312;16.970;2024-01-11T08:36:15;101851.69;;;-4.30;100.00
70843;BME280;58469;52.312;16.970;2024-01-11T08:39:15;101851.25;;;-4.22;100.00
70843;BME280;58469;52.312;16.970;2024-01-11T08:42:15;101838.31;;;-4.19;100.00
70843;BME280;58469;52.312;16.970;2024-01-11T08:45:16;101835.50;;;-4.15;100.00
70843;BME280;58469;52.312;16.970;2024-01-11T08:48:16;101856.53;;;-4.11;100.00
70843;BME280;58469;52.312;16.970;2024-01-11T08:51:16;101867.50;;;-4.09;100.00
70843;BME280;58469;52.312;16.970;2024-01-11T08:54:17;101861.13;;;-4.02;100.00
70843;BME280;58469;52.312;16.970;2024-01-11T08:57:17;101859.97;;;-3.97;100.00
70843;BME280;58469;52.312;16.970;2024-01-11T09:00:17;101873.91;;;-3.88;100.00
70843;BME280;58469;52.312;16.970;2024-01-11T09:03:18;101865.88;;;-3.82;100.00
70843;BME280;58469;52.312;16.970;2024-01-11T09:06:18;101866.38;;;-3.76;100.00
70843;BME280;58469;52.312;16.970;2024-01-11T09:09:18;101856.69;;;-3.71;100.00
70843;BME280;58469;52.312;16.970;2024-01-11T09:12:18;101855.50;;;-3.65;100.00
70843;BME280;58469;52.312;16.970;2024-01-11T09:15:19;101857.97;;;-3.64;100.00
70843;BME280;58469;52.312;16.970;2024-01-11T09:18:19;101857.59;;;-3.58;100.00
70843;BME280;58469;52.312;16.970;2024-01-11T09:21:20;101859.63;;;-3.48;100.00
70843;BME280;58469;52.312;16.970;2024-01-11T09:24:21;101853.22;;;-3.41;100.00
70843;BME280;58469;52.312;16.970;2024-01-11T09:27:21;101864.88;;;-3.37;100.00
70843;BME280;58469;52.312;16.970;2024-01-11T09:30:22;101865.81;;;-3.38;100.00
70843;BME280;58469;52.312;16.970;2024-01-11T09:33:22;101864.53;;;-3.31;100.00
70843;BME280;58469;52.312;16.970;2024-01-11T09:36:22;101859.31;;;-3.30;100.00
70843;BME280;58469;52.312;16.970;2024-01-11T09:39:22;101859.03;;;-3.25;100.00
70843;BME280;58469;52.312;16.970;2024-01-11T09:42:23;101856.94;;;-3.19;100.00
70843;BME280;58469;52.312;16.970;2024-01-11T09:45:24;101867.75;;;-3.15;100.00
70843;BME280;58469;52.312;16.970;2024-01-11T09:48:27;101864.75;;;-3.08;100.00
70843;BME280;58469;52.312;16.970;2024-01-11T09:51:29;101863.66;;;-3.04;100.00
70843;BME280;58469;52.312;16.970;2024-01-11T09:54:30;101859.06;;;-2.99;100.00
70843;BME280;58469;52.312;16.970;2024-01-11T09:57:31;101845.34;;;-2.98;100.00
70843;BME280;58469;52.312;16.970;2024-01-11T10:00:32;101851.22;;;-2.96;100.00
70843;BME280;58469;52.312;16.970;2024-01-11T10:03:32;101844.47;;;-2.97;100.00
70843;BME280;58469;52.312;16.970;2024-01-11T10:06:33;101852.84;;;-2.95;100.00
70843;BME280;58469;52.312;16.970;2024-01-11T10:09:34;101858.56;;;-2.91;100.00
70843;BME280;58469;52.312;16.970;2024-01-11T10:12:35;101855.13;;;-2.90;100.00
70843;BME280;58469;52.312;16.970;2024-01-11T10:15:35;101849.59;;;-2.84;100.00
70843;BME280;58469;52.312;16.970;2024-01-11T10:18:36;101846.78;;;-2.80;100.00
70843;BME280;58469;52.312;16.970;2024-01-11T10:21:40;101836.34;;;-2.77;100.00
70843;BME280;58469;52.312;16.970;2024-01-11T10:24:40;101831.22;;;-2.77;100.00
70843;BME280;58469;52.312;16.970;2024-01-11T10:27:42;101827.25;;;-2.68;100.00
70843;BME280;58469;52.312;16.970;2024-01-11T10:30:45;101813.66;;;-2.69;100.00
70843;BME280;58469;52.312;16.970;2024-01-11T10:33:46;101819.59;;;-2.68;100.00
70843;BME280;58469;52.312;16.970;2024-01-11T10:36:47;101815.22;;;-2.66;100.00
70843;BME280;58469;52.312;16.970;2024-01-11T10:39:48;101817.56;;;-2.63;100.00
70843;BME280;58469;52.312;16.970;2024-01-11T10:42:51;101825.03;;;-2.60;100.00
70843;BME280;58469;52.312;16.970;2024-01-11T10:45:52;101822.88;;;-2.54;100.00
70843;BME280;58469;52.312;16.970;2024-01-11T10:48:55;101811.66;;;-2.51;100.00
70843;BME280;58469;52.312;16.970;2024-01-11T10:52:02;101809.91;;;-2.51;100.00
70843;BME280;58469;52.312;16.970;2024-01-11T10:55:03;101796.72;;;-2.45;100.00
70843;BME280;58469;52.312;16.970;2024-01-11T10:58:03;101804.28;;;-2.43;100.00
70843;BME280;58469;52.312;16.970;2024-01-11T11:01:06;101811.44;;;-2.48;100.00
70843;BME280;58469;52.312;16.970;2024-01-11T11:04:07;101815.56;;;-2.46;100.00
70843;BME280;58469;52.312;16.970;2024-01-11T11:07:09;101821.91;;;-2.38;100.00
70843;BME280;58469;52.312;16.970;2024-01-11T11:10:11;101804.19;;;-2.29;100.00
70843;BME280;58469;52.312;16.970;2024-01-11T11:13:14;101809.22;;;-2.27;100.00
70843;BME280;58469;52.312;16.970;2024-01-11T11:16:15;101811.66;;;-2.26;100.00
70843;BME280;58469;52.312;16.970;2024-01-11T11:19:16;101819.56;;;-2.29;100.00
70843;BME280;58469;52.312;16.970;2024-01-11T11:22:17;101813.00;;;-2.33;100.00
70843;BME280;58469;52.312;16.970;2024-01-11T11:25:24;101815.56;;;-2.33;100.00
70843;BME280;58469;52.312;16.970;2024-01-11T11:28:25;101823.06;;;-2.30;100.00
70843;BME280;58469;52.312;16.970;2024-01-11T11:31:34;101829.91;;;-2.30;100.00
70843;BME280;58469;52.312;16.970;2024-01-11T11:34:42;101818.66;;;-2.28;100.00
70843;BME280;58469;52.312;16.970;2024-01-11T11:37:43;101824.91;;;-2.19;100.00
70843;BME280;58469;52.312;16.970;2024-01-11T11:40:46;101816.19;;;-2.17;100.00
70843;BME280;58469;52.312;16.970;2024-01-11T11:43:47;101812.91;;;-2.19;100.00
70843;BME280;58469;52.312;16.970;2024-01-11T11:46:48;101803.28;;;-2.15;100.00
70843;BME280;58469;52.312;16.970;2024-01-11T11:53:03;101788.22;;;-2.07;100.00
70843;BME280;58469;52.312;16.970;2024-01-11T11:56:05;101798.91;;;-2.01;100.00
70843;BME280;58469;52.312;16.970;2024-01-11T11:59:06;101787.41;;;-1.95;100.00
70843;BME280;58469;52.312;16.970;2024-01-11T12:02:09;101782.81;;;-1.90;100.00
70843;BME280;58469;52.312;16.970;2024-01-11T12:05:16;101782.72;;;-1.89;100.00
70843;BME280;58469;52.312;16.970;2024-01-11T12:08:16;101775.03;;;-1.89;100.00
70843;BME280;58469;52.312;16.970;2024-01-11T12:11:21;101761.28;;;-1.88;100.00
70843;BME280;58469;52.312;16.970;2024-01-11T12:14:21;101774.09;;;-1.88;100.00
70843;BME280;58469;52.312;16.970;2024-01-11T12:17:22;101775.03;;;-1.89;100.00
70843;BME280;58469;52.312;16.970;2024-01-11T12:20:22;101774.31;;;-1.91;100.00
70843;BME280;58469;52.312;16.970;2024-01-11T12:23:22;101774.09;;;-1.88;100.00
70843;BME280;58469;52.312;16.970;2024-01-11T12:26:23;101774.09;;;-1.88;100.00
70843;BME280;58469;52.312;16.970;2024-01-11T12:29:23;101753.38;;;-1.85;100.00
70843;BME280;58469;52.312;16.970;2024-01-11T12:32:23;101754.44;;;-1.87;100.00
70843;BME280;58469;52.312;16.970;2024-01-11T12:35:24;101753.59;;;-1.88;100.00
70843;BME280;58469;52.312;16.970;2024-01-11T12:38:24;101750.09;;;-1.87;100.00
70843;BME280;58469;52.312;16.970;2024-01-11T12:41:25;101748.38;;;-1.86;100.00
70843;BME280;58469;52.312;16.970;2024-01-11T12:44:25;101762.22;;;-1.89;100.00
70843;BME280;58469;52.312;16.970;2024-01-11T12:47:26;101758.59;;;-1.86;100.00
70843;BME280;58469;52.312;16.970;2024-01-11T12:50:27;101763.50;;;-1.83;100.00
70843;BME280;58469;52.312;16.970;2024-01-11T12:53:28;101762.59;;;-1.82;100.00
70843;BME280;58469;52.312;16.970;2024-01-11T12:56:28;101771.13;;;-1.82;100.00
70843;BME280;58469;52.312;16.970;2024-01-11T12:59:29;101760.06;;;-1.82;100.00
70843;BME280;58469;52.312;16.970;2024-01-11T13:02:30;101771.63;;;-1.77;100.00
70843;BME280;58469;52.312;16.970;2024-01-11T13:05:31;101774.19;;;-1.77;100.00
70843;BME280;58469;52.312;16.970;2024-01-11T13:08:32;101771.63;;;-1.77;100.00
70843;BME280;58469;52.312;16.970;2024-01-11T13:11:32;101772.53;;;-1.78;100.00
70843;BME280;58469;52.312;16.970;2024-01-11T13:14:32;101772.72;;;-1.68;100.00
70843;BME280;58469;52.312;16.970;2024-01-11T13:17:33;101768.91;;;-1.63;100.00
70843;BME280;58469;52.312;16.970;2024-01-11T13:20:33;101781.19;;;-1.55;100.00
70843;BME280;58469;52.312;16.970;2024-01-11T13:23:33;101765.50;;;-1.51;100.00
70843;BME280;58469;52.312;16.970;2024-01-11T13:26:35;101781.38;;;-1.46;100.00
70843;BME280;58469;52.312;16.970;2024-01-11T13:29:35;101780.56;;;-1.46;100.00
70843;BME280;58469;52.312;16.970;2024-01-11T13:32:36;101782.09;;;-1.44;100.00
70843;BME280;58469;52.312;16.970;2024-01-11T13:35:37;101773.50;;;-1.43;100.00
70843;BME280;58469;52.312;16.970;2024-01-11T13:38:37;101769.88;;;-1.40;100.00
70843;BME280;58469;52.312;16.970;2024-01-11T13:41:38;101769.75;;;-1.39;100.00
70843;BME280;58469;52.312;16.970;2024-01-11T13:44:38;101763.63;;;-1.36;100.00
70843;BME280;58469;52.312;16.970;2024-01-11T13:47:39;101783.06;;;-1.34;100.00
70843;BME280;58469;52.312;16.970;2024-01-11T13:50:39;101784.84;;;-1.34;100.00
70843;BME280;58469;52.312;16.970;2024-01-11T13:53:39;101771.09;;;-1.33;100.00
70843;BME280;58469;52.312;16.970;2024-01-11T13:56:39;101766.56;;;-1.30;100.00
70843;BME280;58469;52.312;16.970;2024-01-11T13:59:40;101760.53;;;-1.29;100.00
70843;BME280;58469;52.312;16.970;2024-01-11T14:02:40;101759.81;;;-1.31;100.00
70843;BME280;58469;52.312;16.970;2024-01-11T14:05:40;101764.50;;;-1.25;100.00
70843;BME280;58469;52.312;16.970;2024-01-11T14:08:41;101751.44;;;-1.22;100.00
70843;BME280;58469;52.312;16.970;2024-01-11T14:11:41;101756.50;;;-1.20;100.00
70843;BME280;58469;52.312;16.970;2024-01-11T14:14:42;101770.94;;;-1.19;100.00
70843;BME280;58469;52.312;16.970;2024-01-11T14:17:42;101762.53;;;-1.21;100.00
70843;BME280;58469;52.312;16.970;2024-01-11T14:20:42;101768.38;;;-1.19;100.00
70843;BME280;58469;52.312;16.970;2024-01-11T14:23:42;101766.53;;;-1.17;100.00
70843;BME280;58469;52.312;16.970;2024-01-11T14:26:43;101770.81;;;-1.17;100.00
70843;BME280;58469;52.312;16.970;2024-01-11T14:29:43;101754.41;;;-1.15;100.00
70843;BME280;58469;52.312;16.970;2024-01-11T14:32:44;101760.94;;;-1.11;100.00
70843;BME280;58469;52.312;16.970;2024-01-11T14:35:44;101765.03;;;-1.08;100.00
70843;BME280;58469;52.312;16.970;2024-01-11T14:38:45;101781.16;;;-1.06;100.00
70843;BME280;58469;52.312;16.970;2024-01-11T14:41:45;101781.94;;;-1.06;100.00
70843;BME280;58469;52.312;16.970;2024-01-11T14:44:45;101797.34;;;-1.06;100.00
70843;BME280;58469;52.312;16.970;2024-01-11T14:47:45;101799.00;;;-1.05;100.00
70843;BME280;58469;52.312;16.970;2024-01-11T14:50:46;101806.69;;;-1.05;100.00
70843;BME280;58469;52.312;16.970;2024-01-11T14:53:46;101810.75;;;-1.02;100.00
70843;BME280;58469;52.312;16.970;2024-01-11T14:56:46;101814.03;;;-1.00;100.00
70843;BME280;58469;52.312;16.970;2024-01-11T14:59:47;101817.31;;;-0.98;100.00
70843;BME280;58469;52.312;16.970;2024-01-11T15:02:47;101820.59;;;-0.96;100.00
70843;BME280;58469;52.312;16.970;2024-01-11T15:05:47;101826.22;;;-0.91;100.00
70843;BME280;58469;52.312;16.970;2024-01-11T15:08:48;101837.09;;;-0.88;100.00
70843;BME280;58469;52.312;16.970;2024-01-11T15:11:48;101835.44;;;-0.89;100.00
70843;BME280;58469;52.312;16.970;2024-01-11T15:14:48;101836.03;;;-0.85;100.00
70843;BME280;58469;52.312;16.970;2024-01-11T15:17:49;101826.47;;;-0.83;100.00
70843;BME280;58469;52.312;16.970;2024-01-11T15:20:49;101828.81;;;-0.80;100.00
70843;BME280;58469;52.312;16.970;2024-01-11T15:23:50;101829.31;;;-0.75;100.00
70843;BME280;58469;52.312;16.970;2024-01-11T15:26:50;101824.19;;;-0.75;100.00